Twentynine Palms (Self) Airport
KNXP : now visible

Airfield :











YOU CAN JOIN US ON...

 
LOGIN :

Register | Disclaimer

   EN    FR    IT 

 









Legend :    VFR   Marginal VFR   IFR   Intensive IFR   Very Intensive IFR
Visi :
Ceiling :
>= 8 km
>= 3000ft
5 to 8 km
1000 to 3000 ft
1500m to 5 km
500 to 1000 ft
800 to 1500m
200 to 500 ft
< 800m
< 200 ft
Symbols :   Thunderstorms  Fog  Heavy snow  Heavy precipitations  Wind > 20 kt






- Airport Elevation : 2051 ft


KNXP - Twentynine Palms (Self)

CURRENT METAR :
  • 092356Z AUTO 14007KT 10SM BKN050 OVC060 13/04 A3010 RMK AO2 SLP176 T01280039 10139 20117 55015

EXPIRED METARs :
  • 092256Z AUTO 13009KT 10SM SCT075 OVC090 13/03 A3010 RMK AO2 SLP175 T01330033
  • 092156Z AUTO 10SM FEW055 SCT070 BKN085 14/02 A3012 RMK AO2 SLP181 T01390022

TAF TAF KNXP
Valid from the 09 at 21:00 until the 10 at 21:00 UTC


0921/1021 14008KT 9999 SCT030 BKN050 QNH3006INS
BECMG 1000/1002 21006KT 9999 SCT030 BKN050 QNH3005INS
BECMG 1009/1011 VRB05KT 9999 -SHRA BKN035 QNH3005INS AUTOMATED SENSOR METWATCH 0921 TIL 1021 T14/0921Z T08/1015Z



MET'MAP, your aeronautical weather chart ! - Copyright ORBIFLY December 2007 - Disclaimer

ORBIFLY MET'MAP TEAM :

Programming & Development : Alexandra Zaïnal
Concept & original design : Baudouin d'Aumeries
Assistance for programming : Marc-Olivier Méhu
Technical & hardware support : Manuel Goepfert

Contact : metmap@orbifly.com




SOURCES & CREDITS :

   NOAA       Earth
Advisory